Archival Weather

Bob Hope

Burbank, California (KBUR)

Report from: Monday, January 29, 2024 3:53 PM PST
Current time: Friday, June 14, 2024 4:59 AM PDT

Current weather – Weather history – Daily summaries
Weather forecast

Temperature24.4°C (75.9°F)
Dew point1.1°C (34.0°F)
Winds 6 kts (3.1 m/s, 6.9 mph) South (190°)
Visibility10 mi. (16.1 km)
Clouds Sky clear
Altimeter30.04 in.Hg (1017 mB)
Relative humidity22 %
Density altitude1,095 ft. (334 m)
Sea-level pressure101.6 kPa (1016 mB, 30.01 in.Hg)
Max temp last 6 hours26.1°C (79.0°F)
Min temp last 6 hours19.4°C (66.9°F)
Remarks Automated weather observing station with precipitation discriminator
Pressure falling more slowly
Flight conditions Visual Meteorological Conditions
Raw dataKBUR 292353Z 19006KT 10SM CLR 24/01 A3004 RMK AO2 SLP162 T02440011 10261 20194 56009
An error has occurred. This application may no longer respond until reloaded. Reload 🗙